Time;durP1;ratioP1;P1;durP2;ratioP2;P2;SDS_P1;SDS_P2;PMS_P1;PMS_P2;Temp;Humidity;BMP_temperature;BMP_pressure;BME280_temperature;BME280_humidity;BME280_pressure;Samples;Min_cycle;Max_cycle;Signal;HPM_P1;HPM_P2
2023/12/19 20:31:16;;;;;;;1.20;0.90;;;16.90;87.20;;;;;;4916509;27;45446;-59
2023/12/19 20:34:08;;;;;;;1.98;1.00;;;17.10;83.90;;;;;;4909820;27;46499;-59
2023/12/19 20:36:39;;;;;;;1.88;0.88;;;17.10;82.10;;;;;;4926057;27;45368;-59
2023/12/19 20:39:11;;;;;;;2.00;1.42;;;17.10;81.80;;;;;;4907591;27;45500;-58
2023/12/19 20:42:06;;;;;;;1.00;0.80;;;17.10;81.70;;;;;;4958823;27;46422;-58
2023/12/19 20:44:39;;;;;;;1.35;0.85;;;17.10;82.80;;;;;;4947830;27;45567;-58
2023/12/19 20:47:09;;;;;;;2.33;0.90;;;17.10;82.10;;;;;;4912639;27;45370;-58
2023/12/19 20:50:02;;;;;;;0.82;0.82;;;17.10;81.70;;;;;;4930548;27;45445;-59
2023/12/19 20:52:44;;;;;;;2.08;1.10;;;17.10;81.80;;;;;;4917889;27;46620;-60
2023/12/19 20:55:12;;;;;;;1.15;1.00;;;17.20;81.10;;;;;;4934760;27;45429;-59
2023/12/19 20:57:39;;;;;;;1.27;1.00;;;17.20;80.70;;;;;;4904808;27;45356;-58
2023/12/19 21:00:30;;;;;;;2.08;1.30;;;17.20;80.70;;;;;;4916344;27;45401;-58
2023/12/19 21:03:15;;;;;;;1.40;1.10;;;17.20;80.70;;;;;;4920444;27;46605;-58
2023/12/19 21:05:42;;;;;;;1.67;1.10;;;17.10;80.60;;;;;;4907608;27;45621;-58
2023/12/19 21:08:08;;;;;;;1.40;1.20;;;17.10;80.60;;;;;;4929851;27;45617;-59
2023/12/19 21:10:35;;;;;;;1.77;1.20;;;17.20;81.00;;;;;;4912767;27;45499;-58
2023/12/19 21:13:04;;;;;;;1.15;1.05;;;17.10;81.00;;;;;;4951027;27;45900;-58
2023/12/19 21:35:15;;;;;;;1.73;1.43;;;17.20;82.20;;;;;;6106802;22;1235241;-57
2023/12/19 21:37:55;;;;;;;1.90;1.20;;;17.10;82.10;;;;;;5845370;23;46388;-58
2023/12/19 21:40:48;;;;;;;2.08;1.50;;;17.10;82.00;;;;;;5866655;23;46355;-57
2023/12/19 21:43:38;;;;;;;1.83;1.40;;;17.10;82.20;;;;;;5863798;23;45247;-57
2023/12/19 21:46:28;;;;;;;1.77;1.50;;;17.10;82.30;;;;;;5839752;23;45145;-57
2023/12/19 21:52:41;;;;;;;2.13;1.50;;;17.10;82.60;;;;;;5800725;23;45928;-57
2023/12/19 21:55:10;;;;;;;2.22;1.63;;;17.10;82.00;;;;;;5858530;23;45206;-57
2023/12/19 21:58:11;;;;;;;1.45;1.20;;;17.10;82.40;;;;;;5861068;23;45181;-57
2023/12/19 22:01:03;;;;;;;2.53;1.92;;;17.10;82.20;;;;;;5877536;23;45559;-57
2023/12/19 22:03:30;;;;;;;3.78;1.77;;;17.10;82.30;;;;;;5861872;23;45858;-57
2023/12/19 22:05:58;;;;;;;1.80;1.50;;;17.10;82.20;;;;;;5887294;23;45186;-57
2023/12/19 22:12:35;;;;;;;1.95;1.60;;;17.10;82.80;;;;;;5819587;23;45227;-57
2023/12/19 22:15:17;;;;;;;2.03;1.60;;;17.10;82.80;;;;;;5882145;23;45699;-57
2023/12/19 22:17:51;;;;;;;2.08;1.60;;;17.10;82.30;;;;;;5895514;23;45191;-56
2023/12/19 22:20:39;;;;;;;1.50;1.40;;;17.10;82.20;;;;;;5892600;23;45438;-56
2023/12/19 22:23:35;;;;;;;2.35;1.58;;;17.10;82.40;;;;;;5880088;23;45702;-57
2023/12/19 22:26:12;;;;;;;1.63;1.50;;;17.10;82.50;;;;;;5879515;23;46799;-57
2023/12/19 22:28:49;;;;;;;2.13;1.70;;;17.20;82.40;;;;;;5870690;23;45245;-57
2023/12/19 22:31:32;;;;;;;1.63;1.52;;;17.10;82.80;;;;;;5875262;23;45360;-56
2023/12/19 22:37:48;;;;;;;1.50;1.40;;;17.10;82.90;;;;;;5843156;23;45480;-57
2023/12/19 22:40:43;;;;;;;2.25;1.70;;;17.10;83.00;;;;;;5879214;23;45276;-56
2023/12/19 22:43:21;;;;;;;1.67;1.30;;;17.10;83.20;;;;;;5865120;23;45309;-57
2023/12/19 22:45:50;;;;;;;2.28;1.50;;;17.10;82.60;;;;;;5887394;23;45385;-56
2023/12/19 22:48:18;;;;;;;2.92;2.10;;;17.10;82.20;;;;;;5923726;23;46970;-56
2023/12/19 22:51:11;;;;;;;2.08;1.50;;;17.10;82.70;;;;;;5900531;23;45346;-56
2023/12/19 22:53:59;;;;;;;1.67;1.50;;;17.10;82.90;;;;;;5878373;23;45187;-56
2023/12/19 22:56:59;;;;;;;1.95;1.58;;;17.10;82.90;;;;;;5872939;23;45391;-56
2023/12/19 22:59:36;;;;;;;1.63;1.52;;;17.10;82.60;;;;;;5842160;23;46728;-57
2023/12/19 23:02:06;;;;;;;1.98;1.70;;;17.10;82.40;;;;;;5843100;23;45223;-56
2023/12/19 23:04:32;;;;;;;2.15;1.92;;;17.10;82.10;;;;;;5855603;23;45366;-56
2023/12/19 23:07:20;;;;;;;1.98;1.70;;;17.10;81.80;;;;;;5894498;23;45321;-56
2023/12/19 23:10:07;;;;;;;2.10;1.85;;;17.10;81.70;;;;;;5881311;23;46072;-56
2023/12/19 23:12:50;;;;;;;2.17;1.98;;;17.10;81.60;;;;;;5884975;23;45267;-58
2023/12/19 23:15:33;;;;;;;1.80;1.40;;;17.10;81.20;;;;;;5890972;23;45446;-57
2023/12/19 23:18:02;;;;;;;2.53;1.80;;;17.10;80.80;;;;;;5850514;23;45531;-59
2023/12/19 23:20:43;;;;;;;2.28;1.83;;;17.10;80.30;;;;;;5866215;23;46405;-58
2023/12/19 23:23:23;;;;;;;2.05;1.67;;;17.10;80.50;;;;;;5852903;23;45488;-59
2023/12/19 23:26:16;;;;;;;1.90;1.60;;;17.10;80.90;;;;;;5861843;23;45257;-57
2023/12/19 23:29:05;;;;;;;2.42;1.80;;;17.10;80.80;;;;;;5876719;23;45426;-57
2023/12/19 23:31:54;;;;;;;2.75;1.70;;;17.10;81.00;;;;;;5879214;23;46198;-57
2023/12/19 23:34:33;;;;;;;1.77;1.58;;;17.10;81.10;;;;;;5873177;23;45273;-57
2023/12/19 23:37:00;;;;;;;2.00;1.70;;;17.10;81.30;;;;;;5859508;23;45304;-57
2023/12/19 23:39:27;;;;;;;2.00;1.75;;;17.10;81.30;;;;;;5868693;23;45442;-57
2023/12/19 23:42:04;;;;;;;2.35;1.60;;;17.10;81.30;;;;;;5876142;23;47427;-57
2023/12/19 23:44:31;;;;;;;2.83;1.60;;;17.10;81.50;;;;;;5868016;23;45480;-57
2023/12/19 23:47:21;;;;;;;1.90;1.40;;;17.10;81.40;;;;;;5863066;23;45233;-58
2023/12/19 23:49:50;;;;;;;1.75;1.30;;;17.10;81.60;;;;;;5869572;23;45309;-58
2023/12/19 23:52:35;;;;;;;1.20;1.02;;;17.20;81.50;;;;;;5872960;23;46042;-58
2023/12/19 23:55:19;;;;;;;2.50;1.15;;;17.20;82.70;;;;;;5863267;23;45294;-57
2023/12/19 23:58:13;;;;;;;1.42;1.30;;;17.20;82.90;;;;;;5890529;23;45318;-57
